Time;durP1;ratioP1;P1;durP2;ratioP2;P2;SDS_P1;SDS_P2;PMS_P1;PMS_P2;Temp;Humidity;BMP_temperature;BMP_pressure;BME280_temperature;BME280_humidity;BME280_pressure;Samples;Min_cycle;Max_cycle;Signal;HPM_P1;HPM_P2
2022/08/01 00:00:11;;;;;;;0.00;0.00;;;20.30;99.90;226.50;231333.00;;;;5070780;28;20221;-74
2022/08/01 00:02:41;;;;;;;0.00;0.00;;;20.30;99.90;226.50;231333.00;;;;5055685;28;20210;-75
2022/08/01 00:05:10;;;;;;;0.00;0.00;;;20.20;99.90;226.50;231333.00;;;;5060059;28;20201;-76
2022/08/01 00:07:39;;;;;;;0.00;0.00;;;20.10;99.90;226.50;231333.00;;;;5071004;28;20766;-75
2022/08/01 00:10:11;;;;;;;0.00;0.00;;;20.10;99.90;226.50;231333.00;;;;5060353;28;20219;-75
2022/08/01 00:12:40;;;;;;;0.00;0.00;;;20.10;99.90;226.50;231333.00;;;;5051758;28;20194;-76
2022/08/01 00:15:13;;;;;;;0.00;0.00;;;20.00;99.90;226.50;231333.00;;;;5058510;28;20200;-74
2022/08/01 00:17:43;;;;;;;0.00;0.00;;;20.00;99.90;226.50;231333.00;;;;5053481;28;20218;-75
2022/08/01 00:20:14;;;;;;;0.00;0.00;;;19.90;99.90;226.50;231333.00;;;;5057438;28;20664;-75
2022/08/01 00:22:42;;;;;;;0.00;0.00;;;19.80;99.90;226.50;231333.00;;;;5071313;28;20208;-74
2022/08/01 00:25:10;;;;;;;0.00;0.00;;;19.80;99.90;226.50;231333.00;;;;5081536;28;20210;-74
2022/08/01 00:27:38;;;;;;;0.00;0.00;;;19.80;99.90;226.50;231333.00;;;;5057269;28;20214;-74
2022/08/01 00:30:09;;;;;;;0.00;0.00;;;19.70;99.90;226.50;231333.00;;;;5067671;28;20436;-74
2022/08/01 00:32:42;;;;;;;0.00;0.00;;;19.70;99.90;226.50;231333.00;;;;5071018;28;20296;-74
2022/08/01 00:35:10;;;;;;;0.00;0.00;;;19.70;99.90;226.50;231333.00;;;;5061934;28;20687;-75
2022/08/01 00:37:38;;;;;;;0.00;0.00;;;19.70;99.90;226.50;231333.00;;;;5053748;28;20222;-74
2022/08/01 00:40:08;;;;;;;0.00;0.00;;;19.90;99.90;226.50;231333.00;;;;5086079;28;20209;-75
2022/08/01 00:42:36;;;;;;;0.00;0.00;;;19.80;99.90;226.50;231333.00;;;;5070996;28;20198;-76
2022/08/01 00:45:12;;;;;;;0.00;0.00;;;19.80;99.90;226.50;231333.00;;;;5064597;28;20745;-77
2022/08/01 00:47:40;;;;;;;0.00;0.00;;;19.80;99.90;226.50;231333.00;;;;5050708;28;20222;-75
2022/08/01 00:50:10;;;;;;;0.00;0.00;;;19.80;99.90;226.50;231333.00;;;;5057686;28;20662;-75
2022/08/01 00:52:41;;;;;;;0.00;0.00;;;19.80;99.90;226.50;231333.00;;;;5070536;28;20198;-75
2022/08/01 00:55:12;;;;;;;0.00;0.00;;;19.80;99.90;226.50;231333.00;;;;5066235;28;20213;-75
2022/08/01 00:57:42;;;;;;;0.00;0.00;;;19.70;99.90;226.50;231333.00;;;;5069740;28;20695;-75
2022/08/01 01:00:31;;;;;;;0.00;0.00;;;19.70;99.90;226.50;231333.00;;;;5057736;28;20268;-75
2022/08/01 01:03:19;;;;;;;0.00;0.00;;;19.60;99.90;226.50;231333.00;;;;5065214;28;20213;-74
2022/08/01 01:06:11;;;;;;;0.00;0.00;;;19.50;99.90;226.50;231333.00;;;;5066379;28;20201;-74
2022/08/01 01:08:50;;;;;;;0.00;0.00;;;19.50;99.90;226.50;231333.00;;;;5055437;28;20194;-75
2022/08/01 01:11:28;;;;;;;0.00;0.00;;;19.40;99.90;226.50;231333.00;;;;5066806;28;20228;-76
2022/08/01 01:14:05;;;;;;;0.00;0.00;;;19.40;99.90;226.50;231333.00;;;;5066129;28;20231;-75
2022/08/01 01:16:39;;;;;;;0.00;0.00;;;19.50;99.90;226.50;231333.00;;;;5063852;28;20738;-74
2022/08/01 01:19:16;;;;;;;0.00;0.00;;;19.40;99.90;226.50;231333.00;;;;5073790;28;20578;-75
2022/08/01 01:22:23;;;;;;;0.00;0.00;;;19.50;99.90;226.50;231333.00;;;;5070152;28;20199;-77
2022/08/01 01:25:10;;;;;;;0.00;0.00;;;19.40;99.90;226.50;231333.00;;;;5059865;28;20201;-75
2022/08/01 01:27:52;;;;;;;0.10;0.10;;;19.40;99.90;226.50;231333.00;;;;5059587;28;20213;-74
2022/08/01 01:30:25;;;;;;;0.00;0.00;;;19.40;99.90;226.50;231333.00;;;;5061368;28;20605;-74
2022/08/01 01:32:56;;;;;;;0.00;0.00;;;19.40;99.90;226.50;231333.00;;;;5073714;28;20200;-76
2022/08/01 01:35:28;;;;;;;0.00;0.00;;;19.40;99.90;226.50;231333.00;;;;5069151;28;20592;-74
2022/08/01 01:38:04;;;;;;;0.00;0.00;;;19.40;99.90;226.50;231333.00;;;;5066184;28;20217;-74
2022/08/01 01:40:34;;;;;;;0.00;0.00;;;19.40;99.90;226.50;231333.00;;;;5058691;28;20228;-75
2022/08/01 01:43:02;;;;;;;0.00;0.00;;;19.40;99.90;226.50;231333.00;;;;5059507;28;20194;-75
2022/08/01 01:45:32;;;;;;;0.00;0.00;;;19.40;99.90;226.50;231333.00;;;;5060562;28;20588;-75
2022/08/01 01:48:02;;;;;;;0.00;0.00;;;19.40;99.90;226.50;231333.00;;;;5064204;28;20221;-75
2022/08/01 01:50:32;;;;;;;0.00;0.00;;;19.40;99.90;226.50;231333.00;;;;5069444;28;20202;-74
2022/08/01 01:53:03;;;;;;;0.00;0.00;;;19.40;99.90;226.50;231333.00;;;;5088936;28;20205;-75
2022/08/01 01:55:33;;;;;;;0.00;0.00;;;19.40;99.90;226.50;231333.00;;;;5073255;28;20205;-75
2022/08/01 01:58:20;;;;;;;0.00;0.00;;;19.40;99.90;226.50;231333.00;;;;5062738;28;20262;-76
2022/08/01 02:00:52;;;;;;;0.00;0.00;;;19.40;99.90;226.50;231333.00;;;;5073587;28;20197;-75
2022/08/01 02:03:23;;;;;;;0.10;0.10;;;19.40;99.90;226.50;231333.00;;;;5072340;28;20193;-75
2022/08/01 02:05:54;;;;;;;0.00;0.00;;;19.30;99.90;226.50;231333.00;;;;5058849;28;20197;-73
2022/08/01 02:08:24;;;;;;;0.00;0.00;;;19.30;99.90;226.50;231333.00;;;;5072398;28;20190;-74
2022/08/01 02:13:45;;;;;;;0.00;0.00;;;19.40;99.90;226.50;231333.00;;;;5058728;28;20205;-73
2022/08/01 02:16:17;;;;;;;0.00;0.00;;;19.40;99.90;226.50;231333.00;;;;5073729;28;20188;-73
2022/08/01 02:18:45;;;;;;;0.00;0.00;;;19.30;99.90;226.50;231333.00;;;;5071383;28;20198;-74
2022/08/01 02:21:21;;;;;;;0.00;0.00;;;19.40;99.90;226.50;231333.00;;;;5062674;28;20675;-73
2022/08/01 02:23:51;;;;;;;0.00;0.00;;;19.60;99.90;226.50;231333.00;;;;5058446;28;20193;-75
2022/08/01 02:26:20;;;;;;;0.00;0.00;;;19.60;99.90;226.50;231333.00;;;;5062231;28;20719;-74
2022/08/01 02:28:54;;;;;;;0.00;0.00;;;19.60;99.90;226.50;231333.00;;;;5071435;28;20202;-73
2022/08/01 02:31:24;;;;;;;0.00;0.00;;;19.60;99.90;226.50;231333.00;;;;5062850;28;20213;-73
2022/08/01 02:34:02;;;;;;;0.00;0.00;;;19.60;99.90;226.50;231333.00;;;;5059993;28;20201;-74
2022/08/01 02:36:33;;;;;;;0.00;0.00;;;19.60;99.90;226.50;231333.00;;;;5069470;28;20216;-75
2022/08/01 02:39:07;;;;;;;0.00;0.00;;;19.50;99.90;226.50;231333.00;;;;5061455;28;20260;-74
2022/08/01 02:41:42;;;;;;;0.00;0.00;;;19.50;99.90;226.50;231333.00;;;;5063034;28;20198;-72
2022/08/01 02:44:18;;;;;;;0.00;0.00;;;19.40;99.90;226.50;231333.00;;;;5069724;28;20280;-73
2022/08/01 02:46:53;;;;;;;0.00;0.00;;;19.30;99.90;226.50;231333.00;;;;5094908;22;20284;-72
2022/08/01 02:49:26;;;;;;;0.00;0.00;;;19.40;99.90;226.50;231333.00;;;;5113041;28;20184;-72
2022/08/01 02:51:56;;;;;;;0.00;0.00;;;19.40;99.90;226.50;231333.00;;;;5103521;28;20218;-72
2022/08/01 02:54:26;;;;;;;0.00;0.00;;;19.40;99.90;226.50;231333.00;;;;5108265;28;20567;-72
2022/08/01 02:56:57;;;;;;;0.00;0.00;;;19.40;99.90;226.50;231333.00;;;;5107803;28;20223;-72
2022/08/01 02:59:29;;;;;;;0.00;0.00;;;19.40;99.90;226.50;231333.00;;;;5095814;28;20688;-73
2022/08/01 03:02:02;;;;;;;0.00;0.00;;;19.40;99.90;226.50;231333.00;;;;5072433;28;20612;-72
2022/08/01 03:04:33;;;;;;;0.00;0.00;;;19.40;99.90;226.50;231333.00;;;;5079475;28;20220;-72
2022/08/01 03:07:05;;;;;;;0.00;0.00;;;19.30;99.90;226.50;231333.00;;;;5085167;28;20228;-72
2022/08/01 03:09:38;;;;;;;0.00;0.00;;;19.30;99.90;226.50;231333.00;;;;5080461;28;20199;-73
2022/08/01 03:12:15;;;;;;;0.00;0.00;;;19.10;99.90;226.50;231333.00;;;;5091380;28;20228;-72
2022/08/01 03:14:47;;;;;;;0.00;0.00;;;19.10;99.90;226.50;231333.00;;;;5091414;28;20204;-73
2022/08/01 03:17:23;;;;;;;0.00;0.00;;;19.10;99.90;226.50;231333.00;;;;5076942;28;20217;-73
2022/08/01 03:19:53;;;;;;;0.00;0.00;;;19.10;99.90;226.50;231333.00;;;;5085999;28;20212;-73
2022/08/01 03:22:25;;;;;;;0.00;0.00;;;19.10;99.90;226.50;231333.00;;;;5092018;28;20208;-73
2022/08/01 03:24:55;;;;;;;0.00;0.00;;;19.00;99.90;226.50;231333.00;;;;5091785;28;20205;-73
2022/08/01 03:27:26;;;;;;;0.00;0.00;;;18.90;99.90;226.50;231333.00;;;;5092296;28;20710;-73
2022/08/01 03:29:59;;;;;;;0.00;0.00;;;19.00;99.90;226.50;231333.00;;;;5085451;28;20660;-74
2022/08/01 03:32:30;;;;;;;0.00;0.00;;;19.00;99.90;226.50;231333.00;;;;5088128;28;20216;-73
2022/08/01 03:34:59;;;;;;;0.00;0.00;;;18.90;99.90;226.50;231333.00;;;;5092794;28;20755;-72
2022/08/01 03:37:31;;;;;;;0.00;0.00;;;19.00;99.90;226.50;231333.00;;;;5099823;28;20205;-73
2022/08/01 03:40:06;;;;;;;0.00;0.00;;;18.90;99.90;226.50;231333.00;;;;5094147;28;20196;-72
2022/08/01 03:42:39;;;;;;;0.00;0.00;;;18.90;99.90;226.50;231333.00;;;;5075111;28;20190;-71
2022/08/01 03:45:14;;;;;;;0.00;0.00;;;18.80;99.90;226.50;231333.00;;;;5087542;28;20205;-72
2022/08/01 03:47:47;;;;;;;0.00;0.00;;;18.80;99.90;226.50;231333.00;;;;5077747;28;20733;-75
2022/08/01 03:50:21;;;;;;;0.00;0.00;;;18.70;99.90;226.50;231333.00;;;;5086065;28;20251;-76
2022/08/01 03:52:51;;;;;;;0.00;0.00;;;18.80;99.90;226.50;231333.00;;;;5089664;28;20221;-76
2022/08/01 03:55:22;;;;;;;0.00;0.00;;;18.80;99.90;226.50;231333.00;;;;5092336;28;20212;-75
2022/08/01 03:57:52;;;;;;;0.00;0.00;;;18.80;99.90;226.50;231333.00;;;;5090685;28;20578;-75
2022/08/01 04:00:21;;;;;;;0.00;0.00;;;18.70;99.90;226.50;231333.00;;;;5091802;28;20575;-76
2022/08/01 04:02:51;;;;;;;0.00;0.00;;;18.70;99.90;226.50;231333.00;;;;5091333;28;20193;-75
2022/08/01 04:05:20;;;;;;;0.00;0.00;;;18.70;99.90;226.50;231333.00;;;;5090693;28;20201;-75
2022/08/01 04:07:55;;;;;;;0.00;0.00;;;18.70;99.90;226.50;231333.00;;;;5088792;28;20213;-76
2022/08/01 04:10:24;;;;;;;0.00;0.00;;;18.80;99.90;226.50;231333.00;;;;5087378;28;20192;-75
2022/08/01 04:12:52;;;;;;;0.00;0.00;;;18.80;99.90;226.50;231333.00;;;;5080681;28;20315;-75
2022/08/01 04:15:20;;;;;;;0.00;0.00;;;18.80;99.90;226.50;231333.00;;;;5081244;28;20189;-75
2022/08/01 04:17:50;;;;;;;0.00;0.00;;;18.80;99.90;226.50;231333.00;;;;5087968;28;20258;-75
2022/08/01 04:20:18;;;;;;;0.00;0.00;;;18.80;99.90;226.50;231333.00;;;;5091667;28;20548;-77
2022/08/01 04:22:46;;;;;;;0.00;0.00;;;18.90;99.90;226.50;231333.00;;;;5091813;28;20197;-77
2022/08/01 04:25:22;;;;;;;0.00;0.00;;;18.90;99.90;226.50;231333.00;;;;5090242;28;20189;-77
2022/08/01 04:27:54;;;;;;;0.00;0.00;;;18.90;99.90;226.50;231333.00;;;;5077466;28;20213;-77
2022/08/01 04:30:28;;;;;;;0.00;0.00;;;19.00;99.90;226.50;231333.00;;;;5081268;28;20216;-76
2022/08/01 04:33:01;;;;;;;0.00;0.00;;;19.10;99.90;226.50;231333.00;;;;5090570;28;20224;-77
2022/08/01 04:35:30;;;;;;;0.00;0.00;;;19.00;99.90;226.50;231333.00;;;;5090429;28;20211;-77
2022/08/01 04:38:27;;;;;;;0.00;0.00;;;18.90;99.90;226.50;231333.00;;;;5088934;28;20273;-74
2022/08/01 04:40:58;;;;;;;0.00;0.00;;;18.80;99.90;226.50;231333.00;;;;5089183;28;20535;-75
2022/08/01 04:43:36;;;;;;;0.00;0.00;;;18.90;99.90;226.50;231333.00;;;;5090037;28;20279;-74
2022/08/01 04:46:04;;;;;;;0.00;0.00;;;18.90;99.90;226.50;231333.00;;;;5081606;28;20202;-75
2022/08/01 04:48:38;;;;;;;0.00;0.00;;;19.00;99.90;226.50;231333.00;;;;5070789;28;20229;-74
2022/08/01 04:51:14;;;;;;;0.00;0.00;;;19.00;99.90;226.50;231333.00;;;;5073932;28;20224;-75
2022/08/01 04:53:45;;;;;;;0.00;0.00;;;19.00;99.90;226.50;231333.00;;;;5089086;28;20619;-75
2022/08/01 04:56:14;;;;;;;0.00;0.00;;;19.10;99.90;226.50;231333.00;;;;5095368;28;20220;-75
2022/08/01 04:58:43;;;;;;;0.00;0.00;;;19.00;99.90;226.50;231333.00;;;;5089730;28;20229;-77
2022/08/01 05:01:12;;;;;;;0.00;0.00;;;19.00;99.90;226.50;231333.00;;;;5095949;28;20193;-76
2022/08/01 05:03:41;;;;;;;0.00;0.00;;;19.00;99.90;226.50;231333.00;;;;5095169;28;20197;-76
2022/08/01 05:06:09;;;;;;;0.00;0.00;;;19.10;99.90;226.50;231333.00;;;;5079394;28;20212;-75
2022/08/01 05:08:37;;;;;;;0.00;0.00;;;19.20;99.90;226.50;231333.00;;;;5080859;28;20223;-76
2022/08/01 05:11:05;;;;;;;0.00;0.00;;;19.10;99.90;226.50;231333.00;;;;5096909;28;20208;-76
2022/08/01 05:13:33;;;;;;;0.00;0.00;;;19.10;99.90;226.50;231333.00;;;;5086901;28;20221;-76
2022/08/01 05:16:05;;;;;;;0.00;0.00;;;19.10;99.90;226.50;231333.00;;;;5076342;28;20200;-76
2022/08/01 05:18:35;;;;;;;0.00;0.00;;;19.20;99.90;226.50;231333.00;;;;5075944;28;20221;-77
2022/08/01 05:21:05;;;;;;;0.00;0.00;;;19.20;99.90;226.50;231333.00;;;;5083485;28;20238;-78
2022/08/01 05:23:33;;;;;;;0.00;0.00;;;19.20;99.90;226.50;231333.00;;;;5100085;28;20745;-78
2022/08/01 05:26:10;;;;;;;0.00;0.00;;;19.30;99.90;226.50;231333.00;;;;5096345;28;20207;-76
2022/08/01 05:28:41;;;;;;;0.00;0.00;;;19.40;99.90;226.50;231333.00;;;;5078678;28;20222;-76
2022/08/01 05:31:10;;;;;;;0.00;0.00;;;19.40;99.90;226.50;231333.00;;;;5075705;28;20733;-76
2022/08/01 05:33:38;;;;;;;0.00;0.00;;;19.50;99.90;226.50;231333.00;;;;5094341;28;20213;-76
2022/08/01 05:36:07;;;;;;;0.00;0.00;;;19.50;99.90;226.50;231333.00;;;;5093621;28;20196;-76
2022/08/01 05:38:35;;;;;;;0.00;0.00;;;19.50;99.90;226.50;231333.00;;;;5094074;28;20699;-75
2022/08/01 05:41:03;;;;;;;0.00;0.00;;;19.50;99.90;226.50;231333.00;;;;5094113;28;20687;-77
2022/08/01 05:43:31;;;;;;;0.00;0.00;;;19.50;99.90;226.50;231333.00;;;;5094051;28;20204;-76
2022/08/01 05:46:00;;;;;;;0.00;0.00;;;19.60;99.90;226.50;231333.00;;;;5094051;28;20205;-76
2022/08/01 05:48:28;;;;;;;0.00;0.00;;;19.60;99.90;226.50;231333.00;;;;5094259;28;20217;-76
2022/08/01 05:50:56;;;;;;;0.00;0.00;;;19.60;99.90;226.50;231333.00;;;;5094770;28;20177;-76
2022/08/01 05:53:27;;;;;;;0.00;0.00;;;19.60;99.90;226.50;231333.00;;;;5094213;28;20213;-76
2022/08/01 05:55:56;;;;;;;0.00;0.00;;;19.60;99.90;226.50;231333.00;;;;5093758;28;20683;-76
2022/08/01 05:58:24;;;;;;;0.00;0.00;;;19.60;99.90;226.50;231333.00;;;;5093708;28;20216;-76
2022/08/01 06:00:52;;;;;;;0.00;0.00;;;19.60;99.90;226.50;231333.00;;;;5091867;28;20189;-76
2022/08/01 06:03:20;;;;;;;0.00;0.00;;;19.70;99.90;226.50;231333.00;;;;5094238;28;20219;-76
2022/08/01 06:05:48;;;;;;;0.00;0.00;;;19.70;99.90;226.50;231333.00;;;;5093481;28;20232;-76
2022/08/01 06:08:16;;;;;;;0.00;0.00;;;19.70;99.90;226.50;231333.00;;;;5093745;28;20208;-77
2022/08/01 06:10:45;;;;;;;0.00;0.00;;;19.80;99.90;226.50;231333.00;;;;5094414;28;20193;-76
2022/08/01 06:13:13;;;;;;;0.00;0.00;;;19.80;99.90;226.50;231333.00;;;;5093848;28;20220;-76
2022/08/01 06:15:41;;;;;;;0.00;0.00;;;19.90;99.90;226.50;231333.00;;;;5093835;28;20663;-76
2022/08/01 06:18:09;;;;;;;0.00;0.00;;;19.90;99.90;226.50;231333.00;;;;5093516;28;20209;-76
2022/08/01 06:20:37;;;;;;;0.00;0.00;;;19.90;99.90;226.50;231333.00;;;;5093729;28;20197;-76
2022/08/01 06:23:05;;;;;;;0.00;0.00;;;19.90;99.90;226.50;231333.00;;;;5109354;28;20197;-76
2022/08/01 06:25:55;;;;;;;0.00;0.00;;;20.00;99.90;226.50;231333.00;;;;5093414;28;20238;-76
2022/08/01 06:28:23;;;;;;;0.00;0.00;;;20.00;99.90;226.50;231333.00;;;;5093716;28;20216;-76
2022/08/01 06:30:51;;;;;;;0.00;0.00;;;20.10;99.90;226.50;231333.00;;;;5093391;28;20196;-76
2022/08/01 06:33:19;;;;;;;0.00;0.00;;;20.10;99.90;226.50;231333.00;;;;5093449;28;20205;-76
2022/08/01 06:35:47;;;;;;;0.00;0.00;;;20.10;99.90;226.50;231333.00;;;;5088009;28;20190;-76
2022/08/01 06:38:15;;;;;;;0.00;0.00;;;20.30;99.90;226.50;231333.00;;;;5084140;28;20251;-76
2022/08/01 06:40:43;;;;;;;0.00;0.00;;;20.40;99.90;226.50;231333.00;;;;5077935;28;20235;-76
2022/08/01 06:43:12;;;;;;;0.00;0.00;;;20.50;99.90;226.50;231333.00;;;;5073044;28;20565;-76
2022/08/01 06:45:41;;;;;;;0.00;0.00;;;20.50;99.90;226.50;231333.00;;;;5073121;28;20202;-76
2022/08/01 06:48:09;;;;;;;0.00;0.00;;;20.60;99.90;226.50;231333.00;;;;5090512;28;20232;-76
2022/08/01 06:50:37;;;;;;;0.00;0.00;;;20.70;99.90;226.50;231333.00;;;;5093170;28;20193;-76
2022/08/01 06:53:05;;;;;;;0.00;0.00;;;20.70;99.90;226.50;231333.00;;;;5088726;28;20284;-75
2022/08/01 06:55:33;;;;;;;0.00;0.00;;;20.80;99.90;226.50;231333.00;;;;5074567;28;20194;-75
2022/08/01 06:58:01;;;;;;;0.00;0.00;;;20.80;99.90;226.50;231333.00;;;;5084868;28;20594;-76
2022/08/01 07:00:30;;;;;;;0.00;0.00;;;20.90;99.90;226.50;231333.00;;;;5092855;28;20189;-76
2022/08/01 07:02:59;;;;;;;0.00;0.00;;;20.90;99.90;226.50;231333.00;;;;5080781;28;20194;-76
2022/08/01 07:05:30;;;;;;;0.00;0.00;;;20.90;99.90;226.50;231333.00;;;;5072727;28;20204;-75
2022/08/01 07:07:58;;;;;;;0.00;0.00;;;20.90;99.90;226.50;231333.00;;;;5087482;28;20259;-75
2022/08/01 07:10:26;;;;;;;0.00;0.00;;;20.90;99.90;226.50;231333.00;;;;5075166;28;20208;-76
2022/08/01 07:12:54;;;;;;;0.00;0.00;;;21.00;99.90;226.50;231333.00;;;;5092688;28;20185;-76
2022/08/01 07:15:26;;;;;;;0.00;0.00;;;21.00;99.90;226.50;231333.00;;;;5093125;28;20239;-76
2022/08/01 07:17:56;;;;;;;0.00;0.00;;;20.90;99.90;226.50;231333.00;;;;5092295;28;20239;-76
2022/08/01 07:20:24;;;;;;;0.00;0.00;;;21.00;99.90;226.50;231333.00;;;;5091263;28;20203;-78
2022/08/01 07:22:53;;;;;;;0.00;0.00;;;21.00;99.90;226.50;231333.00;;;;5092571;28;20660;-78
2022/08/01 07:25:23;;;;;;;0.00;0.00;;;21.10;99.90;226.50;231333.00;;;;5092991;28;20200;-76
2022/08/01 07:27:51;;;;;;;0.00;0.00;;;21.10;99.90;226.50;231333.00;;;;5092287;28;20291;-76
2022/08/01 07:30:19;;;;;;;0.00;0.00;;;21.00;99.90;226.50;231333.00;;;;5085754;28;20212;-76
2022/08/01 07:32:47;;;;;;;0.00;0.00;;;21.10;99.90;226.50;231333.00;;;;5075009;28;20307;-76
2022/08/01 07:35:17;;;;;;;0.00;0.00;;;21.10;99.90;226.50;231333.00;;;;5071893;28;20233;-76
2022/08/01 07:37:45;;;;;;;0.00;0.00;;;21.10;99.90;226.50;231333.00;;;;5077071;28;20227;-76
2022/08/01 07:40:18;;;;;;;0.00;0.00;;;21.20;99.90;226.50;231333.00;;;;5092302;28;20250;-76
2022/08/01 07:42:46;;;;;;;0.00;0.00;;;21.10;99.90;226.50;231333.00;;;;5092216;28;20672;-76
2022/08/01 07:45:15;;;;;;;0.00;0.00;;;21.10;99.90;226.50;231333.00;;;;5108272;28;20204;-76
2022/08/01 07:47:43;;;;;;;0.00;0.00;;;21.10;99.90;226.50;231333.00;;;;5091863;28;20600;-76
2022/08/01 07:50:12;;;;;;;0.00;0.00;;;21.10;99.90;226.50;231333.00;;;;5092195;28;20193;-76
2022/08/01 07:52:42;;;;;;;0.00;0.00;;;21.10;99.90;226.50;231333.00;;;;5092686;28;20189;-76
2022/08/01 07:55:11;;;;;;;0.00;0.00;;;21.00;99.90;226.50;231333.00;;;;5091119;28;20231;-76
2022/08/01 07:57:43;;;;;;;0.00;0.00;;;21.10;99.90;226.50;231333.00;;;;5092330;28;20229;-77
2022/08/01 08:00:13;;;;;;;0.00;0.00;;;21.20;99.90;226.50;231333.00;;;;5092512;28;20197;-77
2022/08/01 08:02:41;;;;;;;0.00;0.00;;;21.20;99.90;226.50;231333.00;;;;5092061;28;20197;-77
2022/08/01 08:05:10;;;;;;;0.00;0.00;;;21.10;99.90;226.50;231333.00;;;;5091548;28;20735;-75
2022/08/01 08:07:39;;;;;;;0.00;0.00;;;21.20;99.90;226.50;231333.00;;;;5091729;28;20201;-76
2022/08/01 08:10:10;;;;;;;0.00;0.00;;;21.20;99.90;226.50;231333.00;;;;5091743;28;20727;-76
2022/08/01 08:12:38;;;;;;;0.00;0.00;;;21.30;99.90;226.50;231333.00;;;;5091892;28;20630;-76
2022/08/01 08:15:07;;;;;;;0.00;0.00;;;21.50;99.90;226.50;231333.00;;;;5092239;28;20224;-75
2022/08/01 08:17:36;;;;;;;0.00;0.00;;;21.60;99.90;226.50;231333.00;;;;5092418;28;20231;-77
2022/08/01 08:20:06;;;;;;;0.00;0.00;;;21.70;99.90;226.50;231333.00;;;;5091896;28;20227;-76
2022/08/01 08:22:37;;;;;;;0.00;0.00;;;21.70;99.90;226.50;231333.00;;;;5092118;28;20192;-75
2022/08/01 08:25:09;;;;;;;0.00;0.00;;;21.70;99.90;226.50;231333.00;;;;5091771;28;20201;-76
2022/08/01 08:27:39;;;;;;;0.00;0.00;;;21.80;99.90;226.50;231333.00;;;;5091120;28;20213;-76
2022/08/01 08:30:08;;;;;;;0.00;0.00;;;21.80;99.90;226.50;231333.00;;;;5091414;28;20211;-77
2022/08/01 08:32:36;;;;;;;0.00;0.00;;;21.80;99.90;226.50;231333.00;;;;5091536;28;20193;-76
2022/08/01 08:35:06;;;;;;;0.00;0.00;;;21.80;99.90;226.50;231333.00;;;;5091472;28;20212;-79
2022/08/01 08:37:36;;;;;;;0.00;0.00;;;22.00;99.90;226.50;231333.00;;;;5091242;28;20333;-76
2022/08/01 08:40:12;;;;;;;0.00;0.00;;;22.10;99.90;226.50;231333.00;;;;5089741;28;20200;-75
2022/08/01 08:42:41;;;;;;;0.00;0.00;;;22.10;99.90;226.50;231333.00;;;;5073755;28;20209;-77
2022/08/01 08:45:12;;;;;;;0.00;0.00;;;22.40;99.90;226.50;231333.00;;;;5078818;28;20208;-76
2022/08/01 08:47:42;;;;;;;0.00;0.00;;;22.60;99.90;226.50;231333.00;;;;5115621;22;20235;-72
2022/08/01 08:50:11;;;;;;;0.00;0.00;;;22.80;99.90;226.50;231333.00;;;;5091412;28;20723;-72
2022/08/01 08:52:40;;;;;;;0.00;0.00;;;22.70;99.90;226.50;231333.00;;;;5091578;28;20219;-72
2022/08/01 08:55:14;;;;;;;0.00;0.00;;;22.80;99.90;226.50;231333.00;;;;5091273;28;20303;-72
2022/08/01 08:57:45;;;;;;;0.00;0.00;;;22.80;99.90;226.50;231333.00;;;;5091087;28;20232;-72
2022/08/01 09:00:15;;;;;;;0.00;0.00;;;22.70;99.90;226.50;231333.00;;;;5091689;28;20272;-72
2022/08/01 09:02:46;;;;;;;0.00;0.00;;;22.90;99.90;226.50;231333.00;;;;5091575;28;20197;-72
2022/08/01 09:05:14;;;;;;;0.00;0.00;;;22.90;99.90;226.50;231333.00;;;;5091519;28;20201;-72
2022/08/01 09:07:46;;;;;;;0.00;0.00;;;22.80;99.90;226.50;231333.00;;;;5090841;28;20209;-72
2022/08/01 09:10:16;;;;;;;0.00;0.00;;;22.70;99.90;226.50;231333.00;;;;5091366;28;20185;-72
2022/08/01 09:13:07;;;;;;;0.00;0.00;;;22.70;99.90;226.50;231333.00;;;;5091227;28;20268;-72
2022/08/01 09:15:44;;;;;;;0.00;0.00;;;22.80;99.90;226.50;231333.00;;;;5091464;28;20581;-72
2022/08/01 09:18:29;;;;;;;0.00;0.00;;;22.50;99.90;226.50;231333.00;;;;5090995;28;20224;-72
2022/08/01 09:21:11;;;;;;;0.00;0.00;;;22.50;99.90;226.50;231333.00;;;;5091578;28;20193;-73
2022/08/01 09:23:43;;;;;;;0.00;0.00;;;22.50;99.90;226.50;231333.00;;;;5093234;28;20201;-73
2022/08/01 09:26:31;;;;;;;0.00;0.00;;;22.70;99.90;226.50;231333.00;;;;5095140;28;20189;-72
2022/08/01 09:29:05;;;;;;;0.00;0.00;;;22.90;99.90;226.50;231333.00;;;;5095150;28;20205;-72
2022/08/01 09:31:42;;;;;;;0.00;0.00;;;22.90;99.90;226.50;231333.00;;;;5094058;28;20641;-72
2022/08/01 09:34:15;;;;;;;0.00;0.00;;;23.00;99.90;226.50;231333.00;;;;5094274;28;20277;-71
2022/08/01 09:36:52;;;;;;;0.00;0.00;;;23.00;99.90;226.50;231333.00;;;;5095584;28;20260;-73
2022/08/01 09:39:37;;;;;;;0.00;0.00;;;23.10;99.90;226.50;231333.00;;;;5097101;28;20223;-71
2022/08/01 09:42:23;;;;;;;0.00;0.00;;;23.10;99.90;226.50;231333.00;;;;5095607;28;20617;-71
2022/08/01 09:44:56;;;;;;;0.00;0.00;;;23.20;99.90;226.50;231333.00;;;;5095028;28;20197;-72
2022/08/01 09:47:38;;;;;;;0.00;0.00;;;23.10;99.90;226.50;231333.00;;;;5094035;28;20220;-71
2022/08/01 09:50:08;;;;;;;0.00;0.00;;;23.20;99.90;226.50;231333.00;;;;5094712;28;20285;-71
2022/08/01 09:52:38;;;;;;;0.00;0.00;;;23.30;99.90;226.50;231333.00;;;;5094546;28;20284;-71
2022/08/01 09:55:10;;;;;;;0.00;0.00;;;23.30;99.90;226.50;231333.00;;;;5094350;28;20248;-71
2022/08/01 09:57:55;;;;;;;0.00;0.00;;;23.50;99.90;226.50;231333.00;;;;5109741;28;20224;-71
2022/08/01 10:00:23;;;;;;;0.00;0.00;;;23.50;99.90;226.50;231333.00;;;;5093792;28;20207;-71
2022/08/01 10:03:23;;;;;;;0.00;0.00;;;23.50;99.90;226.50;231333.00;;;;5084857;28;20259;-71
2022/08/01 10:05:53;;;;;;;0.00;0.00;;;23.50;99.90;226.50;231333.00;;;;5075273;28;20288;-71
2022/08/01 10:08:23;;;;;;;0.00;0.00;;;23.70;99.90;226.50;231333.00;;;;5094198;28;20209;-71
2022/08/01 10:11:11;;;;;;;0.00;0.00;;;23.90;99.90;226.50;231333.00;;;;5095758;28;20669;-71
2022/08/01 10:13:41;;;;;;;0.00;0.00;;;24.30;99.90;226.50;231333.00;;;;5078520;28;20202;-72
2022/08/01 10:16:13;;;;;;;0.00;0.00;;;24.50;99.90;226.50;231333.00;;;;5080553;28;20229;-71
2022/08/01 10:18:44;;;;;;;0.00;0.00;;;24.70;99.90;226.50;231333.00;;;;5085351;28;20217;-71
2022/08/01 10:21:14;;;;;;;0.00;0.00;;;24.70;99.90;226.50;231333.00;;;;5080259;28;20200;-71
2022/08/01 10:24:04;;;;;;;0.00;0.00;;;24.70;99.90;226.50;231333.00;;;;5085464;28;20208;-71
2022/08/01 10:26:36;;;;;;;0.00;0.00;;;24.60;99.90;226.50;231333.00;;;;5080101;28;20229;-71
2022/08/01 10:29:10;;;;;;;0.00;0.00;;;24.50;99.90;226.50;231333.00;;;;5074073;28;20210;-71
2022/08/01 10:31:58;;;;;;;0.00;0.00;;;24.40;99.90;226.50;231333.00;;;;5093351;28;20189;-71
2022/08/01 10:34:30;;;;;;;0.00;0.00;;;24.40;99.90;226.50;231333.00;;;;5084821;28;20560;-71
2022/08/01 10:36:58;;;;;;;0.00;0.00;;;24.50;99.90;226.50;231333.00;;;;5073197;28;20426;-71
2022/08/01 10:39:29;;;;;;;0.00;0.00;;;24.50;99.90;226.50;231333.00;;;;5073487;28;20678;-71
2022/08/01 10:42:02;;;;;;;0.00;0.00;;;24.60;99.90;226.50;231333.00;;;;5072852;28;20213;-71
2022/08/01 10:44:38;;;;;;;0.00;0.00;;;24.70;99.90;226.50;231333.00;;;;5073502;28;20197;-71
2022/08/01 10:47:10;;;;;;;0.00;0.00;;;24.60;99.90;226.50;231333.00;;;;5072699;28;20214;-72
2022/08/01 10:49:46;;;;;;;0.00;0.00;;;24.70;99.90;226.50;231333.00;;;;5072576;28;20433;-71
2022/08/01 10:52:17;;;;;;;0.00;0.00;;;24.70;99.90;226.50;231333.00;;;;5072985;28;20194;-71
2022/08/01 10:54:47;;;;;;;0.00;0.00;;;24.80;99.90;226.50;231333.00;;;;5071955;28;20224;-72
2022/08/01 10:57:19;;;;;;;0.00;0.00;;;24.80;99.90;226.50;231333.00;;;;5073067;28;20687;-72
2022/08/01 10:59:59;;;;;;;0.00;0.00;;;24.80;99.90;226.50;231333.00;;;;5074554;28;20232;-72
2022/08/01 11:02:33;;;;;;;0.00;0.00;;;24.90;99.90;226.50;231333.00;;;;5073300;28;20201;-72